Pagina principale
METAR-TAF:

METAR-TAF

Aeroporti :

Aeroporto di Parma

Parma, Italia

latitudine: 44-49-17N, longitudine: 010-17-41E, altezza: 50 m

Osservazione

Il bollettino è stato emesso 41 minuti fa, alle 09:50 UTC
Vento 8 kt da ovest, variando fra sud e ovest
Temperature 23°C
Umidità 83%
Pressione 1006 hPa
Visibilità 10 km o più
Nuvoloso ad un'altezza di 2500 ft, Cumulonembo.

METAR: LIMP 070950Z 26008KT 190V280 9999 BKN025CB 23/20 Q1006

Ora: 12:31 (10:31 UTC)

Previsione

Il bollettino è stato emesso 5 ore e 31 minuti fa, alle 05:00 UTC
Previsione valida dal 07 alle 06 UTC al 08 alle 06 UTC
Vento 5 kt da direzioni variabili
Visibilità 10 km o più
Nubi sparse ad un'altezza di 2500 ft
Temporaneamente
dal 07 alle 06 UTC al 07 alle 18 UTC
temporale, pioggia

TAF: LIMP 070500Z 0706/0806 VRB05KT 9999 SCT025 TEMPO 0706/0718 TSRA

Osservazioni e previsioni meteorologiche di più di 4000 aeroporti (messaggi METAR e TAF).

Le stazioni disponibili sono rappresentate dai dischi gialli e rossi sulla carta.

Puntare il mouse per vedere il nome della stazione.

Clicca sopra per visualizzare le osservazioni e previsioni meteorologiche.

Per cambiare la mappa : fare clic sui pulsanti verdi con una croce nera per ingrandire, il pulsante verde con un trattino per diminuire, o sulla freccia verde per le mappe adiacenti.


METAR-TAF: